Time;durP1;ratioP1;P1;durP2;ratioP2;P2;SDS_P1;SDS_P2;PMS_P1;PMS_P2;Temp;Humidity;BMP_temperature;BMP_pressure;BME280_temperature;BME280_humidity;BME280_pressure;Samples;Min_cycle;Max_cycle;Signal;HPM_P1;HPM_P2
2023/01/26 00:00:23;;;;;;;;;;;0.30;99.90;;;;;;5154881;27;19952;-58
2023/01/26 00:02:49;;;;;;;;;;;0.30;99.90;;;;;;5155161;27;20508;-58
2023/01/26 00:05:14;;;;;;;;;;;0.30;99.90;;;;;;5154426;27;20381;-57
2023/01/26 00:07:44;;;;;;;;;;;0.30;99.90;;;;;;5154840;27;19956;-56
2023/01/26 00:10:09;;;;;;;;;;;0.30;99.90;;;;;;5138578;27;20002;-57
2023/01/26 00:12:35;;;;;;;;;;;0.30;99.90;;;;;;5133273;27;19991;-56
2023/01/26 00:15:00;;;;;;;;;;;0.30;99.90;;;;;;5134126;27;19911;-57
2023/01/26 00:17:26;;;;;;;;;;;0.30;99.90;;;;;;5134014;27;19907;-58
2023/01/26 00:19:55;;;;;;;;;;;0.30;99.90;;;;;;5133415;27;20358;-57
2023/01/26 00:22:21;;;;;;;;;;;0.30;99.90;;;;;;5133871;27;19990;-57
2023/01/26 00:24:46;;;;;;;;;;;0.30;99.90;;;;;;5133976;27;20354;-58
2023/01/26 00:27:12;;;;;;;;;;;0.30;99.90;;;;;;5133156;27;19914;-58
2023/01/26 00:29:37;;;;;;;;;;;0.30;99.90;;;;;;5133610;27;20014;-57
2023/01/26 00:32:03;;;;;;;;;;;0.30;99.90;;;;;;5117496;27;20444;-58
2023/01/26 00:34:28;;;;;;;;;;;0.30;99.90;;;;;;5113400;27;19907;-58
2023/01/26 00:36:54;;;;;;;;;;;0.30;99.90;;;;;;5118547;27;20373;-58
2023/01/26 00:39:19;;;;;;;;;;;0.30;99.90;;;;;;5133456;27;19908;-57
2023/01/26 00:44:29;;;;;;;;;;;0.30;99.90;;;;;;5113305;27;19919;-57
2023/01/26 00:46:54;;;;;;;;;;;0.30;99.90;;;;;;5116959;27;19911;-57
2023/01/26 00:49:20;;;;;;;;;;;0.40;99.90;;;;;;5119756;27;20015;-59
2023/01/26 00:51:45;;;;;;;;;;;0.40;99.90;;;;;;5114168;27;20407;-58
2023/01/26 00:54:11;;;;;;;;;;;0.40;99.90;;;;;;5137749;27;19962;-57
2023/01/26 00:56:36;;;;;;;;;;;0.40;99.90;;;;;;5153973;27;19994;-58
2023/01/26 00:59:02;;;;;;;;;;;0.40;99.90;;;;;;5139940;27;20388;-58
2023/01/26 01:01:30;;;;;;;;;;;0.30;99.90;;;;;;5131636;27;20290;-58
2023/01/26 01:03:55;;;;;;;;;;;0.40;99.90;;;;;;5133342;27;19951;-58
2023/01/26 01:06:21;;;;;;;;;;;0.40;99.90;;;;;;5133187;27;20414;-57
2023/01/26 01:08:46;;;;;;;;;;;0.40;99.90;;;;;;5132525;27;19923;-58
2023/01/26 01:11:12;;;;;;;;;;;0.40;99.90;;;;;;5147122;27;19907;-58
2023/01/26 01:13:38;;;;;;;;;;;0.40;99.90;;;;;;5153640;27;20426;-58
2023/01/26 01:16:04;;;;;;;;;;;0.40;99.90;;;;;;5153147;27;20115;-57
2023/01/26 01:18:29;;;;;;;;;;;0.40;99.90;;;;;;5147127;27;20641;-57
2023/01/26 01:20:55;;;;;;;;;;;0.40;99.90;;;;;;5133075;27;20153;-58
2023/01/26 01:23:20;;;;;;;;;;;0.40;99.90;;;;;;5132146;27;19935;-56
2023/01/26 01:25:46;;;;;;;;;;;0.40;99.90;;;;;;5133073;28;19912;-58
2023/01/26 01:28:11;;;;;;;;;;;0.40;99.90;;;;;;5132914;28;19926;-58
2023/01/26 01:30:37;;;;;;;;;;;0.40;99.90;;;;;;5132066;28;20210;-57
2023/01/26 01:33:02;;;;;;;;;;;0.40;99.90;;;;;;5133050;28;20381;-58
2023/01/26 01:35:28;;;;;;;;;;;0.40;99.90;;;;;;5132803;28;19907;-57
2023/01/26 01:37:53;;;;;;;;;;;0.40;99.90;;;;;;5132179;28;19915;-57
2023/01/26 01:40:19;;;;;;;;;;;0.40;99.90;;;;;;5132995;28;19917;-59
2023/01/26 01:42:45;;;;;;;;;;;0.40;99.90;;;;;;5132083;28;20320;-57
2023/01/26 01:45:26;;;;;;;;;;;0.40;99.90;;;;;;5132926;28;19908;-59
2023/01/26 01:47:53;;;;;;;;;;;0.50;99.90;;;;;;5132757;28;19907;-57
2023/01/26 01:50:18;;;;;;;;;;;0.40;99.90;;;;;;5132190;28;19913;-56
2023/01/26 01:52:44;;;;;;;;;;;0.50;99.90;;;;;;5132660;28;19907;-58
2023/01/26 01:55:11;;;;;;;;;;;0.50;99.90;;;;;;5132545;28;19926;-56
2023/01/26 01:57:44;;;;;;;;;;;0.40;99.90;;;;;;5131866;28;19980;-57
2023/01/26 02:00:10;;;;;;;;;;;0.40;99.90;;;;;;5132960;28;19907;-57
2023/01/26 02:02:37;;;;;;;;;;;0.40;99.90;;;;;;5132598;28;19907;-58
2023/01/26 02:05:06;;;;;;;;;;;0.50;99.90;;;;;;5131942;28;19908;-57
2023/01/26 02:07:32;;;;;;;;;;;0.50;99.90;;;;;;5132396;28;19951;-57
2023/01/26 02:12:42;;;;;;;;;;;0.50;99.90;;;;;;5132228;28;20321;-58
2023/01/26 02:15:08;;;;;;;;;;;0.50;99.90;;;;;;5135352;27;20362;-58
2023/01/26 02:17:35;;;;;;;;;;;0.50;99.90;;;;;;5136379;27;19908;-57
2023/01/26 02:20:10;;;;;;;;;;;0.50;99.90;;;;;;5135518;27;19912;-57
2023/01/26 02:22:35;;;;;;;;;;;0.50;99.90;;;;;;5136187;27;20367;-58
2023/01/26 02:25:05;;;;;;;;;;;0.50;99.90;;;;;;5135611;27;19912;-56
2023/01/26 02:27:30;;;;;;;;;;;0.50;99.90;;;;;;5136418;27;19955;-57
2023/01/26 02:29:57;;;;;;;;;;;0.50;99.90;;;;;;5136237;27;19966;-57
2023/01/26 02:32:23;;;;;;;;;;;0.50;99.90;;;;;;5135277;27;19912;-57
2023/01/26 02:34:54;;;;;;;;;;;0.50;99.90;;;;;;5121783;27;20259;-57
2023/01/26 02:37:19;;;;;;;;;;;0.50;99.90;;;;;;5116521;27;19918;-59
2023/01/26 02:39:52;;;;;;;;;;;0.50;99.90;;;;;;5114774;28;19907;-58
2023/01/26 02:45:02;;;;;;;;;;;0.50;99.90;;;;;;5115755;28;19919;-57
2023/01/26 02:47:27;;;;;;;;;;;0.50;99.90;;;;;;5115417;27;19907;-58
2023/01/26 02:49:52;;;;;;;;;;;0.50;99.90;;;;;;5115334;28;19920;-58
2023/01/26 02:52:22;;;;;;;;;;;0.50;99.90;;;;;;5116457;27;20412;-58
2023/01/26 02:57:33;;;;;;;;;;;0.60;99.90;;;;;;5143332;27;19955;-58
2023/01/26 02:59:59;;;;;;;;;;;0.60;99.90;;;;;;5156576;27;20312;-58
2023/01/26 03:02:25;;;;;;;;;;;0.60;99.90;;;;;;5140199;27;20010;-57
2023/01/26 03:04:50;;;;;;;;;;;0.60;99.90;;;;;;5135666;27;19917;-57
2023/01/26 03:07:16;;;;;;;;;;;0.60;99.90;;;;;;5134939;27;19908;-57
2023/01/26 03:09:41;;;;;;;;;;;0.60;99.90;;;;;;5135233;27;19978;-58
2023/01/26 03:12:07;;;;;;;;;;;0.60;99.90;;;;;;5135477;27;19907;-56
2023/01/26 03:14:32;;;;;;;;;;;0.60;99.90;;;;;;5149555;27;19907;-58
2023/01/26 03:16:58;;;;;;;;;;;0.60;99.90;;;;;;5152001;27;19950;-57
2023/01/26 03:27:41;;;;;;;;;;;0.60;99.90;;;;;;5135719;27;19953;-57
2023/01/26 03:30:07;;;;;;;;;;;0.70;99.90;;;;;;5133840;27;19988;-58
2023/01/26 03:32:32;;;;;;;;;;;0.70;99.90;;;;;;5135340;27;20412;-57
2023/01/26 03:34:57;;;;;;;;;;;0.70;99.90;;;;;;5134681;27;19908;-58
2023/01/26 03:37:23;;;;;;;;;;;0.70;99.90;;;;;;5134347;27;19907;-59
2023/01/26 03:56:21;;;;;;;;;;;0.80;99.90;;;;;;5154069;27;19972;-57
2023/01/26 03:58:49;;;;;;;;;;;0.80;99.90;;;;;;5127159;27;19921;-59
2023/01/26 04:01:20;;;;;;;;;;;0.80;99.90;;;;;;5154931;27;20400;-59
2023/01/26 04:09:15;;;;;;;;;;;0.80;99.90;;;;;;5119128;27;19923;-59
2023/01/26 04:11:40;;;;;;;;;;;0.90;99.90;;;;;;5125456;27;19915;-58
2023/01/26 04:22:20;;;;;;;;;;;0.90;99.90;;;;;;5114127;28;19919;-58
2023/01/26 04:24:45;;;;;;;;;;;0.90;99.90;;;;;;5112880;28;19911;-59
2023/01/26 04:27:11;;;;;;;;;;;0.90;99.90;;;;;;5113150;27;19955;-58
2023/01/26 04:29:36;;;;;;;;;;;0.90;99.90;;;;;;5129144;27;19934;-59
2023/01/26 04:32:02;;;;;;;;;;;0.90;99.90;;;;;;5120536;27;19908;-58
2023/01/26 04:34:27;;;;;;;;;;;0.90;99.90;;;;;;5152718;27;20282;-59
2023/01/26 04:36:53;;;;;;;;;;;0.90;99.90;;;;;;5147990;27;20369;-59
2023/01/26 04:39:18;;;;;;;;;;;1.00;99.90;;;;;;5133180;27;19999;-59
2023/01/26 04:41:44;;;;;;;;;;;0.90;99.90;;;;;;5133931;27;20290;-60
2023/01/26 04:44:09;;;;;;;;;;;1.00;99.90;;;;;;5133473;27;19947;-60
2023/01/26 04:46:35;;;;;;;;;;;1.00;99.90;;;;;;5133031;27;20381;-59
2023/01/26 04:49:00;;;;;;;;;;;1.00;99.90;;;;;;5138528;27;19965;-59
2023/01/26 04:51:27;;;;;;;;;;;1.00;99.90;;;;;;5154296;27;19914;-60
2023/01/26 04:53:52;;;;;;;;;;;1.00;99.90;;;;;;5153054;27;19907;-60
2023/01/26 04:56:21;;;;;;;;;;;1.00;99.90;;;;;;5154245;27;19911;-60
2023/01/26 04:58:47;;;;;;;;;;;1.00;99.90;;;;;;5154305;27;19911;-59
2023/01/26 05:01:12;;;;;;;;;;;1.00;99.90;;;;;;5153182;27;19911;-60
2023/01/26 05:03:38;;;;;;;;;;;1.00;99.90;;;;;;5154150;27;19907;-59
2023/01/26 05:06:04;;;;;;;;;;;1.00;99.90;;;;;;5153723;27;19915;-59
2023/01/26 05:08:29;;;;;;;;;;;1.00;99.90;;;;;;5151439;27;20266;-59
2023/01/26 05:10:55;;;;;;;;;;;1.00;99.90;;;;;;5118444;27;19941;-59
2023/01/26 05:13:20;;;;;;;;;;;1.10;99.90;;;;;;5126868;27;19916;-60
2023/01/26 05:15:46;;;;;;;;;;;1.10;99.90;;;;;;5113085;27;20327;-60
2023/01/26 05:18:12;;;;;;;;;;;1.10;99.90;;;;;;5141801;27;20281;-59
2023/01/26 05:20:38;;;;;;;;;;;1.10;99.90;;;;;;5153810;27;19952;-60
2023/01/26 05:23:03;;;;;;;;;;;1.10;99.90;;;;;;5137032;27;19911;-61
2023/01/26 05:25:29;;;;;;;;;;;1.10;99.90;;;;;;5133388;27;19985;-60
2023/01/26 05:27:54;;;;;;;;;;;1.10;99.90;;;;;;5132206;28;19915;-60
2023/01/26 05:30:20;;;;;;;;;;;1.10;99.90;;;;;;5133213;28;19912;-59
2023/01/26 05:32:45;;;;;;;;;;;1.10;99.90;;;;;;5133054;28;20266;-59
2023/01/26 05:35:11;;;;;;;;;;;1.10;99.90;;;;;;5147382;27;19908;-60
2023/01/26 05:37:37;;;;;;;;;;;1.20;99.90;;;;;;5153837;27;20273;-59
2023/01/26 05:40:03;;;;;;;;;;;1.10;99.90;;;;;;5153299;27;20380;-59
2023/01/26 05:42:28;;;;;;;;;;;1.10;99.90;;;;;;5152892;27;19907;-58
2023/01/26 05:44:54;;;;;;;;;;;1.20;99.90;;;;;;5152692;27;19936;-58
2023/01/26 05:47:19;;;;;;;;;;;1.20;99.90;;;;;;5153791;27;19907;-58
2023/01/26 05:49:45;;;;;;;;;;;1.20;99.90;;;;;;5155011;27;19923;-58
2023/01/26 05:52:13;;;;;;;;;;;1.20;99.90;;;;;;5125314;27;19916;-58
2023/01/26 05:54:38;;;;;;;;;;;1.20;99.90;;;;;;5116029;28;19924;-57
2023/01/26 05:57:04;;;;;;;;;;;1.20;99.90;;;;;;5115508;27;19923;-58
2023/01/26 05:59:29;;;;;;;;;;;1.20;99.90;;;;;;5116436;27;20409;-57
2023/01/26 06:01:55;;;;;;;;;;;1.10;99.90;;;;;;5115952;27;19912;-57
2023/01/26 06:04:20;;;;;;;;;;;1.20;99.90;;;;;;5116520;27;20124;-57
2023/01/26 06:06:46;;;;;;;;;;;1.20;99.90;;;;;;5116106;27;19912;-58
2023/01/26 06:09:11;;;;;;;;;;;1.20;99.90;;;;;;5115845;28;19927;-57
2023/01/26 06:11:37;;;;;;;;;;;1.20;99.90;;;;;;5116995;27;20039;-58
2023/01/26 06:14:02;;;;;;;;;;;1.20;99.90;;;;;;5125145;27;20347;-58
2023/01/26 06:16:28;;;;;;;;;;;1.20;99.90;;;;;;5116180;27;19952;-57
2023/01/26 06:18:53;;;;;;;;;;;1.30;99.90;;;;;;5121477;27;19934;-57
2023/01/26 06:21:19;;;;;;;;;;;1.30;99.90;;;;;;5117012;27;20290;-57
2023/01/26 06:23:44;;;;;;;;;;;1.30;99.90;;;;;;5116656;27;19919;-57
2023/01/26 06:26:10;;;;;;;;;;;1.30;99.90;;;;;;5114900;27;19912;-57
2023/01/26 06:28:35;;;;;;;;;;;1.30;99.90;;;;;;5120812;27;20305;-57
2023/01/26 06:31:02;;;;;;;;;;;1.30;99.90;;;;;;5128293;27;19916;-57
2023/01/26 06:33:29;;;;;;;;;;;1.30;99.90;;;;;;5134855;27;20401;-57
2023/01/26 06:35:55;;;;;;;;;;;1.30;99.90;;;;;;5128102;27;20007;-57
2023/01/26 06:38:21;;;;;;;;;;;1.30;99.90;;;;;;5114912;28;20237;-58
2023/01/26 06:40:47;;;;;;;;;;;1.30;99.90;;;;;;5119892;27;20290;-57
2023/01/26 06:43:12;;;;;;;;;;;1.30;99.90;;;;;;5130153;27;19915;-57
2023/01/26 06:45:37;;;;;;;;;;;1.30;99.90;;;;;;5133244;27;20011;-57
2023/01/26 06:48:03;;;;;;;;;;;1.30;99.90;;;;;;5134507;27;19926;-56
2023/01/26 06:50:32;;;;;;;;;;;1.40;99.90;;;;;;5133778;27;20001;-56
2023/01/26 06:52:59;;;;;;;;;;;1.40;99.90;;;;;;5133067;27;19918;-57
2023/01/26 06:55:42;;;;;;;;;;;1.40;99.90;;;;;;5134012;27;19924;-57
2023/01/26 06:58:08;;;;;;;;;;;1.40;99.90;;;;;;5132167;27;20394;-56
2023/01/26 07:00:33;;;;;;;;;;;1.40;99.90;;;;;;5132347;27;19962;-56
2023/01/26 07:02:59;;;;;;;;;;;1.40;99.90;;;;;;5124091;27;20309;-56
2023/01/26 07:05:24;;;;;;;;;;;1.40;99.90;;;;;;5156184;27;19914;-56
2023/01/26 07:07:50;;;;;;;;;;;1.40;99.90;;;;;;5147014;27;19998;-56
2023/01/26 07:10:15;;;;;;;;;;;1.40;99.90;;;;;;5130662;27;19920;-56
2023/01/26 07:12:41;;;;;;;;;;;1.40;99.90;;;;;;5114820;28;19912;-56
2023/01/26 07:15:07;;;;;;;;;;;1.40;99.90;;;;;;5114751;27;19912;-56
2023/01/26 07:17:33;;;;;;;;;;;1.40;99.90;;;;;;5144774;27;20006;-56
2023/01/26 07:19:58;;;;;;;;;;;1.40;99.90;;;;;;5152310;27;19994;-57
2023/01/26 07:22:24;;;;;;;;;;;1.40;99.90;;;;;;5113968;27;20278;-57
2023/01/26 07:24:49;;;;;;;;;;;1.40;99.90;;;;;;5114754;28;19951;-57
2023/01/26 07:27:15;;;;;;;;;;;1.40;99.90;;;;;;5114221;27;19912;-56
2023/01/26 07:29:40;;;;;;;;;;;1.40;99.90;;;;;;5114175;28;20146;-57
2023/01/26 07:32:06;;;;;;;;;;;1.40;99.90;;;;;;5114291;28;20419;-57
2023/01/26 07:34:32;;;;;;;;;;;1.40;99.90;;;;;;5113718;28;19912;-56
2023/01/26 07:36:57;;;;;;;;;;;1.40;99.90;;;;;;5124785;27;19919;-56
2023/01/26 07:39:23;;;;;;;;;;;1.40;99.90;;;;;;5136083;27;19967;-56
2023/01/26 07:41:48;;;;;;;;;;;1.40;99.90;;;;;;5154491;27;19911;-56
2023/01/26 07:44:14;;;;;;;;;;;1.40;99.90;;;;;;5141446;27;19990;-56
2023/01/26 07:46:40;;;;;;;;;;;1.40;99.90;;;;;;5134865;27;19908;-56
2023/01/26 07:49:06;;;;;;;;;;;1.40;99.90;;;;;;5133614;27;20252;-56
2023/01/26 07:51:31;;;;;;;;;;;1.40;99.90;;;;;;5135210;27;20503;-56
2023/01/26 07:53:57;;;;;;;;;;;1.40;99.90;;;;;;5134842;27;20373;-56
2023/01/26 07:56:23;;;;;;;;;;;1.50;99.90;;;;;;5134432;27;19908;-56
2023/01/26 07:58:52;;;;;;;;;;;1.50;99.90;;;;;;5130399;27;20402;-56
2023/01/26 08:01:18;;;;;;;;;;;1.50;99.90;;;;;;5148280;27;19907;-56
2023/01/26 08:03:44;;;;;;;;;;;1.50;99.90;;;;;;5154495;27;19915;-57
2023/01/26 08:06:09;;;;;;;;;;;1.50;99.90;;;;;;5134183;27;19908;-57
2023/01/26 08:08:35;;;;;;;;;;;1.50;99.90;;;;;;5133353;27;20396;-57
2023/01/26 08:11:01;;;;;;;;;;;1.60;99.90;;;;;;5130985;27;20010;-57
2023/01/26 08:13:27;;;;;;;;;;;1.50;99.90;;;;;;5129362;27;20293;-58
2023/01/26 08:15:52;;;;;;;;;;;1.50;99.90;;;;;;5127542;27;19915;-59
2023/01/26 08:18:18;;;;;;;;;;;1.50;99.90;;;;;;5131718;27;20362;-58
2023/01/26 08:20:53;;;;;;;;;;;1.50;99.90;;;;;;5132577;27;19991;-58
2023/01/26 08:23:18;;;;;;;;;;;1.50;99.90;;;;;;5132617;27;19907;-57
2023/01/26 08:25:44;;;;;;;;;;;1.50;99.90;;;;;;5129027;27;19914;-57
2023/01/26 08:28:10;;;;;;;;;;;1.50;99.90;;;;;;5132355;27;19914;-58
2023/01/26 08:30:35;;;;;;;;;;;1.50;99.90;;;;;;5131950;27;20354;-58
2023/01/26 08:33:02;;;;;;;;;;;1.50;99.90;;;;;;5132098;27;19941;-58
2023/01/26 08:35:27;;;;;;;;;;;1.50;99.90;;;;;;5132526;27;19908;-58
2023/01/26 08:37:53;;;;;;;;;;;1.60;99.90;;;;;;5131212;27;19961;-58
2023/01/26 08:40:18;;;;;;;;;;;1.50;99.90;;;;;;5132414;27;19968;-57
2023/01/26 08:42:43;;;;;;;;;;;1.60;99.90;;;;;;5132120;27;20107;-58
2023/01/26 08:45:09;;;;;;;;;;;1.60;99.90;;;;;;5131425;27;20026;-59
2023/01/26 08:47:35;;;;;;;;;;;1.50;99.90;;;;;;5132287;27;20331;-58
2023/01/26 08:50:00;;;;;;;;;;;1.50;99.90;;;;;;5131629;27;19923;-58
2023/01/26 08:52:26;;;;;;;;;;;1.60;99.90;;;;;;5131309;27;20007;-58
2023/01/26 08:54:51;;;;;;;;;;;1.60;99.90;;;;;;5131652;27;19972;-57
2023/01/26 08:57:17;;;;;;;;;;;1.50;99.90;;;;;;5131982;27;20255;-58
2023/01/26 08:59:42;;;;;;;;;;;1.50;99.90;;;;;;5130951;27;19908;-58
2023/01/26 09:02:09;;;;;;;;;;;1.60;99.90;;;;;;5131769;27;19971;-59
2023/01/26 09:04:34;;;;;;;;;;;1.50;99.90;;;;;;5131878;27;19907;-58
2023/01/26 09:07:00;;;;;;;;;;;1.60;99.90;;;;;;5130109;27;19964;-58
2023/01/26 09:09:25;;;;;;;;;;;1.60;99.90;;;;;;5132027;27;19927;-59
2023/01/26 09:11:53;;;;;;;;;;;1.70;99.90;;;;;;5130653;27;19915;-58
2023/01/26 09:14:19;;;;;;;;;;;1.70;99.90;;;;;;5123947;27;19915;-58
2023/01/26 09:16:44;;;;;;;;;;;1.70;99.90;;;;;;5145251;27;20007;-57
2023/01/26 09:19:10;;;;;;;;;;;1.80;99.90;;;;;;5117568;27;19912;-58
2023/01/26 09:21:35;;;;;;;;;;;1.80;99.90;;;;;;5131916;27;20001;-58
2023/01/26 09:24:01;;;;;;;;;;;1.80;99.90;;;;;;5131492;27;19992;-57
2023/01/26 09:26:27;;;;;;;;;;;1.90;99.90;;;;;;5131040;27;19907;-58
2023/01/26 09:28:53;;;;;;;;;;;1.90;99.90;;;;;;5130614;28;19912;-58
2023/01/26 09:31:18;;;;;;;;;;;2.00;99.90;;;;;;5131099;28;20297;-58
2023/01/26 09:33:44;;;;;;;;;;;2.10;99.90;;;;;;5132882;28;19918;-59
2023/01/26 09:36:10;;;;;;;;;;;2.10;99.90;;;;;;5132868;28;20006;-59
2023/01/26 09:38:35;;;;;;;;;;;2.20;99.90;;;;;;5133580;28;19907;-58
2023/01/26 09:41:04;;;;;;;;;;;2.30;99.90;;;;;;5114237;28;19912;-59
2023/01/26 09:43:35;;;;;;;;;;;2.30;99.90;;;;;;5113167;28;19914;-58
2023/01/26 09:46:08;;;;;;;;;;;2.40;99.90;;;;;;5112954;28;19968;-59
2023/01/26 09:48:42;;;;;;;;;;;2.50;99.90;;;;;;5112339;28;19912;-59
2023/01/26 09:51:10;;;;;;;;;;;2.60;99.90;;;;;;5113015;28;19941;-58
2023/01/26 09:53:36;;;;;;;;;;;2.70;99.90;;;;;;5112958;28;19908;-58
2023/01/26 09:56:01;;;;;;;;;;;2.80;99.90;;;;;;5111583;28;19930;-58
2023/01/26 09:58:34;;;;;;;;;;;2.90;99.90;;;;;;5112862;28;19908;-58
2023/01/26 10:01:01;;;;;;;;;;;3.00;99.90;;;;;;5112971;28;20003;-58
2023/01/26 10:03:30;;;;;;;;;;;3.10;99.90;;;;;;5112128;28;19918;-59
2023/01/26 10:06:02;;;;;;;;;;;3.20;99.90;;;;;;5112738;28;19908;-58
2023/01/26 10:08:27;;;;;;;;;;;3.30;99.90;;;;;;5113310;28;20318;-59
2023/01/26 10:10:57;;;;;;;;;;;3.50;99.90;;;;;;5132557;28;20425;-59
2023/01/26 10:13:22;;;;;;;;;;;3.60;99.90;;;;;;5133434;28;19950;-58
2023/01/26 10:15:52;;;;;;;;;;;3.70;99.90;;;;;;5133262;28;20388;-58
2023/01/26 10:18:19;;;;;;;;;;;3.90;99.90;;;;;;5132646;28;19908;-58
2023/01/26 10:20:48;;;;;;;;;;;4.00;99.90;;;;;;5133211;28;19908;-58
2023/01/26 10:23:15;;;;;;;;;;;4.10;99.90;;;;;;5131297;28;19994;-57
2023/01/26 10:25:43;;;;;;;;;;;4.20;99.90;;;;;;5112515;28;20423;-58
2023/01/26 10:28:13;;;;;;;;;;;4.30;99.90;;;;;;5112546;28;19908;-58
2023/01/26 10:30:39;;;;;;;;;;;4.50;99.90;;;;;;5112062;28;20420;-59
2023/01/26 10:33:09;;;;;;;;;;;4.50;99.90;;;;;;5112617;28;19916;-58
2023/01/26 10:35:35;;;;;;;;;;;4.70;99.90;;;;;;5114318;28;19915;-58
2023/01/26 10:38:01;;;;;;;;;;;4.80;99.90;;;;;;5116438;27;19907;-58
2023/01/26 10:40:27;;;;;;;;;;;4.90;99.90;;;;;;5127934;27;19927;-58
2023/01/26 10:42:56;;;;;;;;;;;5.00;99.90;;;;;;5126790;27;20068;-58
2023/01/26 10:45:29;;;;;;;;;;;5.10;99.90;;;;;;5135737;27;19919;-58
2023/01/26 10:48:25;;;;;;;;;;;5.20;99.90;;;;;;5135053;27;19908;-58
2023/01/26 10:50:52;;;;;;;;;;;5.30;99.90;;;;;;5111203;27;20397;-58
2023/01/26 10:53:25;;;;;;;;;;;5.40;99.90;;;;;;5131538;27;20350;-58
2023/01/26 10:56:00;;;;;;;;;;;5.50;99.90;;;;;;5134771;27;19962;-58
2023/01/26 10:58:41;;;;;;;;;;;5.60;99.90;;;;;;5132731;27;19959;-58
2023/01/26 11:01:11;;;;;;;;;;;5.70;99.90;;;;;;5129852;27;19919;-58
2023/01/26 11:03:39;;;;;;;;;;;5.90;99.90;;;;;;5134728;27;19908;-59
2023/01/26 11:06:06;;;;;;;;;;;5.90;99.90;;;;;;5133981;27;19994;-58
2023/01/26 11:08:35;;;;;;;;;;;6.00;99.90;;;;;;5134674;27;19938;-59
2023/01/26 11:11:02;;;;;;;;;;;6.10;99.90;;;;;;5134870;27;19908;-58
2023/01/26 11:13:28;;;;;;;;;;;6.20;99.90;;;;;;5134170;27;20025;-59
2023/01/26 11:16:09;;;;;;;;;;;6.30;99.90;;;;;;5134534;27;20010;-59
2023/01/26 11:18:41;;;;;;;;;;;6.40;99.90;;;;;;5109570;27;20391;-59
2023/01/26 11:21:09;;;;;;;;;;;6.40;99.90;;;;;;5133507;27;19957;-59
2023/01/26 11:23:47;;;;;;;;;;;6.50;99.90;;;;;;5132513;27;19908;-59
2023/01/26 11:26:19;;;;;;;;;;;6.60;99.90;;;;;;5118249;27;19919;-58
2023/01/26 11:28:52;;;;;;;;;;;6.80;99.90;;;;;;5134792;27;19912;-58
2023/01/26 11:31:43;;;;;;;;;;;6.90;99.90;;;;;;5135767;27;19961;-58
2023/01/26 11:34:09;;;;;;;;;;;6.90;99.90;;;;;;5116785;27;20374;-58
2023/01/26 11:36:53;;;;;;;;;;;7.00;99.90;;;;;;5135717;27;19922;-59
2023/01/26 11:39:18;;;;;;;;;;;7.00;99.90;;;;;;5135511;27;19907;-57
2023/01/26 11:42:04;;;;;;;;;;;7.10;99.90;;;;;;5122445;27;19957;-59
2023/01/26 11:44:56;;;;;;;;;;;7.10;99.90;;;;;;5127339;27;19950;-59
2023/01/26 11:47:21;;;;;;;;;;;7.20;99.90;;;;;;5114395;28;19951;-58
2023/01/26 11:49:47;;;;;;;;;;;7.20;99.90;;;;;;5114813;28;19951;-58
2023/01/26 11:52:18;;;;;;;;;;;7.30;99.90;;;;;;5116553;27;19916;-58
2023/01/26 11:54:56;;;;;;;;;;;7.40;99.90;;;;;;5114863;28;20010;-59
2023/01/26 11:57:31;;;;;;;;;;;7.50;99.90;;;;;;5115464;28;19912;-58
2023/01/26 11:59:59;;;;;;;;;;;7.50;99.90;;;;;;5115472;28;19908;-59
2023/01/26 12:02:25;;;;;;;;;;;7.60;99.90;;;;;;5117946;27;19958;-59
2023/01/26 12:04:51;;;;;;;;;;;7.70;99.90;;;;;;5118987;27;19955;-56
2023/01/26 12:07:20;;;;;;;;;;;7.70;99.90;;;;;;5113322;28;20384;-59
2023/01/26 12:09:46;;;;;;;;;;;7.80;99.90;;;;;;5123757;27;20002;-59
2023/01/26 12:12:30;;;;;;;;;;;7.80;99.90;;;;;;5133344;27;20564;-58
2023/01/26 12:14:58;;;;;;;;;;;7.90;99.90;;;;;;5133652;27;19964;-57
2023/01/26 12:17:32;;;;;;;;;;;8.00;99.90;;;;;;5114161;27;19911;-58
2023/01/26 12:20:05;;;;;;;;;;;8.10;99.90;;;;;;5121456;27;20519;-57
2023/01/26 12:22:36;;;;;;;;;;;8.20;99.90;;;;;;5115002;28;20011;-57
2023/01/26 12:25:12;;;;;;;;;;;8.30;99.90;;;;;;5121073;27;19915;-59
2023/01/26 12:27:41;;;;;;;;;;;8.30;99.90;;;;;;5126591;27;19918;-58
2023/01/26 12:30:10;;;;;;;;;;;8.20;99.90;;;;;;5113973;27;20011;-57
2023/01/26 12:32:35;;;;;;;;;;;8.10;99.90;;;;;;5134489;27;19961;-58
2023/01/26 12:35:01;;;;;;;;;;;8.00;99.90;;;;;;5122293;27;19911;-58
2023/01/26 12:37:26;;;;;;;;;;;7.90;99.90;;;;;;5113725;27;19953;-55
2023/01/26 12:40:21;;;;;;;;;;;7.80;99.90;;;;;;5134466;27;19911;-56
2023/01/26 12:43:05;;;;;;;;;;;7.70;99.90;;;;;;5100435;27;19958;-57
2023/01/26 12:45:35;;;;;;;;;;;7.50;99.90;;;;;;5132844;27;19907;-56
2023/01/26 12:48:06;;;;;;;;;;;7.40;99.90;;;;;;5115931;27;19912;-57
2023/01/26 12:50:35;;;;;;;;;;;7.40;99.90;;;;;;5128716;27;19915;-58
2023/01/26 12:53:13;;;;;;;;;;;7.30;99.90;;;;;;5115523;27;19957;-58
2023/01/26 12:55:57;;;;;;;;;;;7.30;99.90;;;;;;5119780;27;19920;-58
2023/01/26 12:58:25;;;;;;;;;;;7.20;99.90;;;;;;5133010;27;19912;-58
2023/01/26 13:01:13;;;;;;;;;;;7.30;99.90;;;;;;5118574;27;19908;-57
2023/01/26 13:03:44;;;;;;;;;;;7.50;99.90;;;;;;5102624;27;19912;-56
2023/01/26 13:06:09;;;;;;;;;;;7.70;99.90;;;;;;5114660;27;20359;-56
2023/01/26 13:08:34;;;;;;;;;;;7.80;99.90;;;;;;5113410;28;19923;-58
2023/01/26 13:11:03;;;;;;;;;;;7.80;99.90;;;;;;5113256;28;19911;-58
2023/01/26 13:13:30;;;;;;;;;;;7.90;99.90;;;;;;5113032;27;19911;-56
2023/01/26 13:16:14;;;;;;;;;;;8.00;99.90;;;;;;5122504;27;19957;-58
2023/01/26 13:18:51;;;;;;;;;;;8.10;99.90;;;;;;5117916;27;20249;-57
2023/01/26 13:21:28;;;;;;;;;;;8.10;99.90;;;;;;5118108;27;19911;-57
2023/01/26 13:23:54;;;;;;;;;;;8.10;99.90;;;;;;5129326;27;20258;-57
2023/01/26 13:26:26;;;;;;;;;;;8.10;99.90;;;;;;5124795;27;19916;-58
2023/01/26 13:29:11;;;;;;;;;;;8.20;99.90;;;;;;5117881;27;20410;-57
2023/01/26 13:31:37;;;;;;;;;;;8.20;99.90;;;;;;5121672;28;19908;-57
2023/01/26 13:34:06;;;;;;;;;;;8.30;99.90;;;;;;5125250;28;19912;-57
2023/01/26 13:36:34;;;;;;;;;;;8.30;99.90;;;;;;5113270;28;19973;-57
2023/01/26 13:39:02;;;;;;;;;;;8.30;99.90;;;;;;5133401;28;20377;-58
2023/01/26 13:41:28;;;;;;;;;;;8.20;99.90;;;;;;5132889;28;19941;-58
2023/01/26 13:44:06;;;;;;;;;;;8.10;99.90;;;;;;5133458;28;19908;-57
2023/01/26 13:46:40;;;;;;;;;;;8.00;99.90;;;;;;5133861;28;20006;-57
2023/01/26 13:49:21;;;;;;;;;;;7.90;99.90;;;;;;5132955;28;19958;-58
2023/01/26 13:51:47;;;;;;;;;;;7.80;99.90;;;;;;5133369;28;19952;-58
2023/01/26 13:54:13;;;;;;;;;;;7.80;99.90;;;;;;5132296;28;19923;-58
2023/01/26 13:56:39;;;;;;;;;;;7.70;99.90;;;;;;5133510;28;20372;-59
2023/01/26 13:59:12;;;;;;;;;;;7.70;99.90;;;;;;5133273;28;19914;-58
2023/01/26 14:01:41;;;;;;;;;;;7.70;99.90;;;;;;5132522;28;19908;-57
2023/01/26 14:04:11;;;;;;;;;;;7.70;99.90;;;;;;5127762;28;19918;-58
2023/01/26 14:06:36;;;;;;;;;;;7.70;99.90;;;;;;5112582;28;19935;-58
2023/01/26 14:09:03;;;;;;;;;;;7.70;99.90;;;;;;5113122;28;20382;-59
2023/01/26 14:11:31;;;;;;;;;;;7.70;99.90;;;;;;5116890;27;20286;-57
2023/01/26 14:13:58;;;;;;;;;;;7.70;99.90;;;;;;5116269;27;19969;-59
2023/01/26 14:16:36;;;;;;;;;;;7.70;99.90;;;;;;5122655;27;19907;-58
2023/01/26 14:19:06;;;;;;;;;;;7.70;99.90;;;;;;5116294;28;19918;-57
2023/01/26 14:21:32;;;;;;;;;;;7.60;99.90;;;;;;5127602;27;20308;-58
2023/01/26 14:23:57;;;;;;;;;;;7.60;99.90;;;;;;5127991;27;19956;-59
2023/01/26 14:26:30;;;;;;;;;;;7.50;99.90;;;;;;5136494;27;20377;-58
2023/01/26 14:28:56;;;;;;;;;;;7.50;99.90;;;;;;5136610;27;19915;-57
2023/01/26 14:31:23;;;;;;;;;;;7.50;99.90;;;;;;5134628;27;19914;-59
2023/01/26 14:33:51;;;;;;;;;;;7.50;99.90;;;;;;5110560;27;19923;-59
2023/01/26 14:36:18;;;;;;;;;;;7.40;99.90;;;;;;5120236;27;19951;-58
2023/01/26 14:38:48;;;;;;;;;;;7.40;99.90;;;;;;5124855;27;19995;-59
2023/01/26 14:41:19;;;;;;;;;;;7.40;99.90;;;;;;5136639;27;19907;-58
2023/01/26 14:43:44;;;;;;;;;;;7.40;99.90;;;;;;5119363;27;19908;-58
2023/01/26 14:46:15;;;;;;;;;;;7.40;99.90;;;;;;5116257;27;19923;-57
2023/01/26 14:48:50;;;;;;;;;;;7.40;99.90;;;;;;5116030;27;19923;-57
2023/01/26 14:51:19;;;;;;;;;;;7.30;99.90;;;;;;5115149;28;19912;-58
2023/01/26 14:53:51;;;;;;;;;;;7.30;99.90;;;;;;5116807;27;19918;-59
2023/01/26 14:56:18;;;;;;;;;;;7.30;99.90;;;;;;5127144;27;19916;-57
2023/01/26 14:58:43;;;;;;;;;;;7.20;99.90;;;;;;5115323;28;19919;-58
2023/01/26 15:01:18;;;;;;;;;;;7.20;99.90;;;;;;5130197;27;19908;-58
2023/01/26 15:03:43;;;;;;;;;;;7.20;99.90;;;;;;5136379;27;19908;-58
2023/01/26 15:06:12;;;;;;;;;;;7.20;99.90;;;;;;5122903;27;19933;-57
2023/01/26 15:08:39;;;;;;;;;;;7.20;99.90;;;;;;5120743;27;19947;-58
2023/01/26 15:13:52;;;;;;;;;;;7.10;99.90;;;;;;5135634;27;20373;-58
2023/01/26 15:16:19;;;;;;;;;;;7.10;99.90;;;;;;5136056;27;19915;-58
2023/01/26 15:18:46;;;;;;;;;;;7.10;99.90;;;;;;5134265;27;19961;-58
2023/01/26 15:21:19;;;;;;;;;;;7.00;99.90;;;;;;5135880;27;19912;-58
2023/01/26 15:23:48;;;;;;;;;;;7.00;99.90;;;;;;5135903;27;19951;-58
2023/01/26 15:26:30;;;;;;;;;;;7.00;99.90;;;;;;5135171;27;19908;-58